createdAt,value
2019-02-22T00:01:43.953Z,95453.98
2019-02-22T00:04:13.540Z,95453.52
2019-02-22T00:06:43.041Z,95454.50
2019-02-22T00:09:12.536Z,95458.05
2019-02-22T00:11:42.064Z,95450.23
2019-02-22T00:14:11.973Z,95445.82
2019-02-22T00:16:41.477Z,95440.09
2019-02-22T00:19:10.984Z,95442.37
2019-02-22T00:21:40.490Z,95442.70
2019-02-22T00:24:10.053Z,95435.89
2019-02-22T00:26:39.562Z,95429.38
2019-02-22T00:29:09.020Z,95427.05
2019-02-22T00:31:38.503Z,95422.52
2019-02-22T00:34:08.030Z,95417.46
2019-02-22T00:36:37.560Z,95403.45
2019-02-22T00:39:07.317Z,95412.71
2019-02-22T00:41:36.829Z,95406.17
2019-02-22T00:44:06.362Z,95398.70
2019-02-22T00:46:35.871Z,95396.73
2019-02-22T00:49:05.366Z,95390.38
2019-02-22T00:51:34.814Z,95386.45
2019-02-22T00:54:04.290Z,95383.84
2019-02-22T00:56:33.790Z,95388.90
2019-02-22T00:59:03.296Z,95382.24
2019-02-22T01:01:32.794Z,95378.67
2019-02-22T01:04:02.314Z,95376.22
2019-02-22T01:06:31.788Z,95380.03
2019-02-22T01:09:01.303Z,95368.95
2019-02-22T01:11:30.807Z,95372.83
2019-02-22T01:14:00.302Z,95372.34
2019-02-22T01:16:29.807Z,95367.99
2019-02-22T01:18:59.305Z,95359.22
2019-02-22T01:21:28.774Z,95356.20
2019-02-22T01:23:58.315Z,95350.98
2019-02-22T01:26:27.808Z,95352.47
2019-02-22T01:28:57.249Z,95351.69
2019-02-22T01:31:26.750Z,95337.77
2019-02-22T01:33:56.233Z,95343.48
2019-02-22T01:36:25.721Z,95345.33
2019-02-22T01:38:55.227Z,95341.59
2019-02-22T01:41:24.722Z,95336.28
2019-02-22T01:43:54.200Z,95342.69
2019-02-22T01:46:23.718Z,95337.77
2019-02-22T01:48:53.600Z,95339.63
2019-02-22T01:51:23.104Z,95337.04
2019-02-22T01:53:54.061Z,95340.66
2019-02-22T01:56:23.722Z,95329.58
2019-02-22T01:58:53.208Z,95324.53
2019-02-22T02:01:22.747Z,95318.06
2019-02-22T02:03:52.333Z,95311.08
2019-02-22T02:06:21.861Z,95302.98
2019-02-22T02:08:51.401Z,95307.69
2019-02-22T02:11:20.949Z,95305.22
2019-02-22T02:13:58.681Z,95299.30
2019-02-22T02:16:32.539Z,95296.06
2019-02-22T02:19:10.146Z,95288.01
2019-02-22T02:21:46.010Z,95292.19
2019-02-22T02:24:19.365Z,95291.56
2019-02-22T02:26:49.826Z,95281.86
2019-02-22T02:29:22.204Z,95284.89
2019-02-22T02:31:51.726Z,95285.16
2019-02-22T02:34:21.800Z,95282.05
2019-02-22T02:36:56.031Z,95273.70
2019-02-22T02:39:30.637Z,95270.68
2019-02-22T02:42:03.534Z,95271.22
2019-02-22T02:44:34.763Z,95270.81
2019-02-22T02:47:16.162Z,95272.72
2019-02-22T02:49:47.094Z,95268.84
2019-02-22T02:52:17.315Z,95257.98
2019-02-22T02:54:46.810Z,95260.31
2019-02-22T02:57:17.455Z,95260.24
2019-02-22T02:59:56.935Z,95254.23
2019-02-22T03:02:30.588Z,95250.82
2019-02-22T03:05:00.417Z,95248.38
2019-02-22T03:07:45.755Z,95250.54
2019-02-22T03:10:19.567Z,95234.03
2019-02-22T03:12:52.652Z,95236.69
2019-02-22T03:15:24.160Z,95234.09
2019-02-22T03:17:58.727Z,95237.42
2019-02-22T03:20:36.955Z,95237.70
2019-02-22T03:23:14.559Z,95233.02
2019-02-22T03:25:50.234Z,95227.50
2019-02-22T03:28:28.584Z,95221.98
2019-02-22T03:31:06.313Z,95221.00
2019-02-22T03:33:43.553Z,95215.70
2019-02-22T03:36:19.480Z,95213.08
2019-02-22T03:38:56.964Z,95214.46
2019-02-22T03:41:32.745Z,95199.70
2019-02-22T03:43:57.793Z,95200.72
2019-02-22T03:46:35.448Z,95193.42
2019-02-22T03:49:15.489Z,95190.44
2019-02-22T03:51:45.062Z,95200.13
2019-02-22T03:54:14.567Z,95196.29
2019-02-22T03:56:56.085Z,95195.56
2019-02-22T03:59:32.015Z,95192.30
2019-02-22T04:02:01.518Z,95187.22
2019-02-22T04:04:31.017Z,95181.84
2019-02-22T04:07:00.594Z,95184.22
2019-02-22T04:09:32.846Z,95188.47
2019-02-22T04:12:09.614Z,95183.70
2019-02-22T04:14:42.338Z,95188.92
2019-02-22T04:17:14.954Z,95172.91
2019-02-22T04:19:44.488Z,95167.88
2019-02-22T04:22:13.970Z,95161.47
2019-02-22T04:24:43.473Z,95159.99
2019-02-22T04:27:13.667Z,95154.84
2019-02-22T04:29:43.681Z,95155.27
2019-02-22T04:32:37.000Z,95138.49
2019-02-22T04:35:08.885Z,95139.06
2019-02-22T04:37:45.016Z,95145.36
2019-02-22T04:40:15.173Z,95150.57
2019-02-22T04:42:45.589Z,95141.91
2019-02-22T04:45:15.989Z,95142.80
2019-02-22T04:47:48.580Z,95139.25
2019-02-22T04:50:21.298Z,95135.03
2019-02-22T04:52:52.946Z,95141.98
2019-02-22T04:55:29.453Z,95127.45
2019-02-22T04:57:59.871Z,95137.81
2019-02-22T05:00:30.237Z,95128.27
2019-02-22T05:02:59.788Z,95134.77
2019-02-22T05:05:29.351Z,95123.84
2019-02-22T05:07:58.853Z,95121.27
2019-02-22T05:10:28.409Z,95121.95
2019-02-22T05:12:59.153Z,95132.87
2019-02-22T05:15:28.726Z,95121.80
2019-02-22T05:17:58.369Z,95121.95
2019-02-22T05:20:27.959Z,95123.87
2019-02-22T05:23:03.779Z,95130.06
2019-02-22T05:25:30.794Z,95123.03
2019-02-22T05:28:00.290Z,95124.41
2019-02-22T05:30:29.809Z,95117.79
2019-02-22T05:32:59.265Z,95115.92
2019-02-22T05:35:28.759Z,95117.44
2019-02-22T05:37:58.313Z,95116.58
2019-02-22T05:40:27.822Z,95116.15
2019-02-22T05:42:57.295Z,95117.02
2019-02-22T05:45:26.805Z,95116.77
2019-02-22T05:47:56.271Z,95114.89
2019-02-22T05:50:25.724Z,95118.16
2019-02-22T05:52:55.221Z,95108.08
2019-02-22T05:55:24.699Z,95109.08
2019-02-22T05:57:54.186Z,95114.22
2019-02-22T06:00:23.693Z,95102.58
2019-02-22T06:02:53.176Z,95111.62
2019-02-22T06:05:22.648Z,95104.19
2019-02-22T06:07:52.172Z,95107.16
2019-02-22T06:10:21.607Z,95106.08
2019-02-22T06:12:51.105Z,95100.25
2019-02-22T06:15:20.624Z,95100.77
2019-02-22T06:17:50.122Z,95102.40
2019-02-22T06:20:19.556Z,95099.50
2019-02-22T06:22:49.063Z,95099.98
2019-02-22T06:25:18.557Z,95100.65
2019-02-22T06:27:48.112Z,95103.39
2019-02-22T06:30:18.058Z,95101.13
2019-02-22T06:32:47.529Z,95094.97
2019-02-22T06:35:17.005Z,95101.01
2019-02-22T06:37:46.498Z,95092.13
2019-02-22T06:40:16.034Z,95097.30
2019-02-22T06:42:46.282Z,95090.92
2019-02-22T06:45:15.901Z,95084.59
2019-02-22T06:47:45.453Z,95082.37
2019-02-22T06:50:14.989Z,95082.74
2019-02-22T06:52:44.517Z,95083.42
2019-02-22T06:55:14.025Z,95078.41
2019-02-22T06:57:43.567Z,95073.67
2019-02-22T07:00:13.137Z,95075.00
2019-02-22T07:02:42.639Z,95062.34
2019-02-22T07:05:12.249Z,95062.33
2019-02-22T07:07:41.790Z,95053.56
2019-02-22T07:10:11.507Z,95051.46
2019-02-22T07:12:56.774Z,95043.17
2019-02-22T07:15:21.869Z,95040.90
2019-02-22T07:17:51.362Z,95038.62
2019-02-22T07:20:20.857Z,95037.48
2019-02-22T07:22:50.351Z,95040.40
2019-02-22T07:25:19.858Z,95040.70
2019-02-22T07:27:49.370Z,95030.80
2019-02-22T07:30:18.930Z,95029.84
2019-02-22T07:32:48.423Z,95031.80
2019-02-22T07:35:17.950Z,95022.86
2019-02-22T07:37:47.504Z,95027.58
2019-02-22T07:40:19.798Z,95026.44
2019-02-22T07:42:48.288Z,95024.33
2019-02-22T07:45:17.806Z,95026.59
2019-02-22T07:47:47.305Z,95025.13
2019-02-22T07:50:16.772Z,95028.88
2019-02-22T07:52:46.285Z,95020.42
2019-02-22T07:55:15.744Z,95021.86
2019-02-22T07:57:45.236Z,95017.98
2019-02-22T08:00:15.138Z,95009.86
2019-02-22T08:02:44.621Z,95007.43
2019-02-22T08:05:14.251Z,95005.48
2019-02-22T08:07:43.753Z,95000.09
2019-02-22T08:10:13.274Z,95002.03
2019-02-22T08:12:42.796Z,95002.14
2019-02-22T08:15:12.298Z,94995.61
2019-02-22T08:17:41.829Z,94989.39
2019-02-22T08:20:11.367Z,94985.45
2019-02-22T08:22:40.865Z,94986.88
2019-02-22T08:25:10.363Z,94978.91
2019-02-22T08:27:41.726Z,94978.70
2019-02-22T08:30:11.275Z,94970.72
2019-02-22T08:32:40.843Z,94968.72
2019-02-22T08:35:10.334Z,94969.36
2019-02-22T08:37:39.817Z,94960.19
2019-02-22T08:40:10.046Z,94952.20
2019-02-22T08:42:39.611Z,94961.98
2019-02-22T08:45:09.750Z,94956.55
2019-02-22T08:47:39.464Z,94951.59
2019-02-22T08:50:09.682Z,94950.08
2019-02-22T08:52:39.113Z,94951.62
2019-02-22T08:55:08.562Z,94942.50
2019-02-22T08:57:38.012Z,94944.05
2019-02-22T09:00:08.948Z,94935.09
2019-02-22T09:02:38.551Z,94939.09
2019-02-22T09:05:08.492Z,94924.84
2019-02-22T09:07:37.959Z,94929.34
2019-02-22T09:10:07.924Z,94930.55
2019-02-22T09:12:37.464Z,94927.23
2019-02-22T09:15:07.336Z,94923.09
2019-02-22T09:17:36.849Z,94919.02
2019-02-22T09:20:06.880Z,94922.67
2019-02-22T09:22:36.369Z,94920.25
2019-02-22T09:25:06.276Z,94922.06
2019-02-22T09:27:35.843Z,94925.89
2019-02-22T09:30:05.725Z,94918.34
2019-02-22T09:32:35.227Z,94920.13
2019-02-22T09:35:05.111Z,94919.58
2019-02-22T09:37:34.601Z,94915.55
2019-02-22T09:40:04.179Z,94918.77
2019-02-22T09:42:33.690Z,94916.01
2019-02-22T09:45:03.221Z,94921.05
2019-02-22T09:47:32.698Z,94924.50
2019-02-22T09:50:02.212Z,94917.55
2019-02-22T09:52:31.723Z,94914.76
2019-02-22T09:55:01.317Z,94911.78
2019-02-22T09:57:30.796Z,94915.54
2019-02-22T10:00:00.400Z,94914.16
2019-02-22T10:02:29.911Z,94908.36
2019-02-22T10:04:59.419Z,94907.20
2019-02-22T10:07:28.926Z,94900.21
2019-02-22T10:09:58.445Z,94905.91
2019-02-22T10:12:27.962Z,94901.83
2019-02-22T10:14:57.448Z,94897.80
2019-02-22T10:17:26.962Z,94888.16
2019-02-22T10:19:56.451Z,94894.68
2019-02-22T10:22:25.960Z,94888.31
2019-02-22T10:24:55.469Z,94885.38
2019-02-22T10:27:24.969Z,94875.77
2019-02-22T10:29:54.468Z,94868.64
2019-02-22T10:32:23.950Z,94871.41
2019-02-22T10:34:53.455Z,94872.35
2019-02-22T10:37:22.962Z,94866.89
2019-02-22T10:39:52.464Z,94855.67
2019-02-22T10:42:21.996Z,94855.27
2019-02-22T10:44:51.455Z,94842.50
2019-02-22T10:47:20.949Z,94850.63
2019-02-22T10:49:50.471Z,94838.95
2019-02-22T10:52:20.033Z,94839.45
2019-02-22T10:54:49.505Z,94832.03
2019-02-22T10:57:18.994Z,94828.14
2019-02-22T10:59:48.592Z,94825.44
2019-02-22T11:02:18.065Z,94818.75
2019-02-22T11:04:47.600Z,94817.45
2019-02-22T11:07:17.110Z,94826.92
2019-02-22T11:09:46.776Z,94813.77
2019-02-22T11:12:16.273Z,94813.86
2019-02-22T11:14:45.752Z,94810.34
2019-02-22T11:17:15.276Z,94822.58
2019-02-22T11:19:44.803Z,94821.78
2019-02-22T11:22:14.349Z,94806.20
2019-02-22T11:24:43.820Z,94811.30
2019-02-22T11:27:13.301Z,94803.30
2019-02-22T11:29:42.754Z,94813.62
2019-02-22T11:32:12.248Z,94809.82
2019-02-22T11:34:42.487Z,94796.13
2019-02-22T11:37:15.213Z,94795.95
2019-02-22T11:39:44.739Z,94790.59
2019-02-22T11:42:14.279Z,94784.13
2019-02-22T11:44:43.749Z,94783.33
2019-02-22T11:47:13.235Z,94782.66
2019-02-22T11:49:42.743Z,94779.73
2019-02-22T11:52:12.316Z,94770.75
2019-02-22T11:54:41.819Z,94773.24
2019-02-22T11:57:11.784Z,94772.92
2019-02-22T11:59:41.269Z,94771.70
2019-02-22T12:02:10.763Z,94756.36
2019-02-22T12:04:40.262Z,94760.70
2019-02-22T12:07:09.778Z,94758.03
2019-02-22T12:09:39.265Z,94746.95
2019-02-22T12:12:08.754Z,94747.50
2019-02-22T12:14:38.230Z,94747.91
2019-02-22T12:17:07.711Z,94741.70
2019-02-22T12:19:37.202Z,94744.86
2019-02-22T12:22:06.741Z,94735.51
2019-02-22T12:24:36.267Z,94740.17
2019-02-22T12:27:05.750Z,94733.16
2019-02-22T12:29:35.236Z,94734.23
2019-02-22T12:32:04.699Z,94730.61
2019-02-22T12:34:34.219Z,94727.95
2019-02-22T12:37:03.689Z,94730.28
2019-02-22T12:39:33.224Z,94726.33
2019-02-22T12:42:02.737Z,94717.84
2019-02-22T12:44:32.246Z,94714.31
2019-02-22T12:47:01.748Z,94721.35
2019-02-22T12:49:31.256Z,94725.23
2019-02-22T12:52:00.751Z,94725.93
2019-02-22T12:54:30.205Z,94721.00
2019-02-22T12:56:59.688Z,94721.79
2019-02-22T12:59:29.139Z,94731.40
2019-02-22T13:01:58.644Z,94725.87
2019-02-22T13:04:28.177Z,94724.73
2019-02-22T13:06:57.640Z,94710.91
2019-02-22T13:09:36.191Z,94728.48
2019-02-22T13:11:58.304Z,94717.19
2019-02-22T13:14:27.828Z,94711.48
2019-02-22T13:16:57.330Z,94713.25
2019-02-22T13:19:26.863Z,94715.05
2019-02-22T13:21:56.368Z,94711.08
2019-02-22T13:24:25.876Z,94715.53
2019-02-22T13:26:55.695Z,94716.45
2019-02-22T13:29:25.220Z,94714.81
2019-02-22T13:31:54.709Z,94707.98
2019-02-22T13:34:24.230Z,94713.04
2019-02-22T13:36:53.732Z,94710.29
2019-02-22T13:39:23.217Z,94713.45
2019-02-22T13:41:52.731Z,94717.36
2019-02-22T13:44:23.398Z,94709.63
2019-02-22T13:46:53.044Z,94709.28
2019-02-22T13:49:22.547Z,94700.90
2019-02-22T13:51:52.071Z,94709.60
2019-02-22T13:54:21.533Z,94702.30
2019-02-22T13:56:51.071Z,94699.20
2019-02-22T13:59:20.599Z,94699.03
2019-02-22T14:01:50.111Z,94698.16
2019-02-22T14:04:19.622Z,94697.16
2019-02-22T14:06:49.095Z,94694.64
2019-02-22T14:09:18.566Z,94689.91
2019-02-22T14:11:48.089Z,94689.84
2019-02-22T14:14:17.546Z,94699.92
2019-02-22T14:16:47.088Z,94696.61
2019-02-22T14:19:16.586Z,94697.39
2019-02-22T14:21:46.070Z,94692.80
2019-02-22T14:24:15.578Z,94697.66
2019-02-22T14:26:45.124Z,94689.93
2019-02-22T14:29:14.679Z,94685.13
2019-02-22T14:31:44.131Z,94682.36
2019-02-22T14:34:13.696Z,94693.41
2019-02-22T14:36:43.175Z,94676.42
2019-02-22T14:39:12.827Z,94684.38
2019-02-22T14:41:42.230Z,94691.06
2019-02-22T14:44:11.721Z,94684.41
2019-02-22T14:46:41.259Z,94686.66
2019-02-22T14:49:10.802Z,94686.61
2019-02-22T14:51:40.295Z,94686.03
2019-02-22T14:54:09.759Z,94687.83
2019-02-22T14:56:39.224Z,94679.09
2019-02-22T14:59:08.716Z,94683.98
2019-02-22T15:01:38.249Z,94683.08
2019-02-22T15:04:07.777Z,94678.55
2019-02-22T15:06:37.297Z,94685.78
2019-02-22T15:09:08.419Z,94685.19
2019-02-22T15:11:37.893Z,94687.05
2019-02-22T15:14:07.464Z,94696.41
2019-02-22T15:16:52.745Z,94693.48
2019-02-22T15:19:22.380Z,94683.39
2019-02-22T15:21:51.932Z,94690.41
2019-02-22T15:24:21.455Z,94688.88
2019-02-22T15:26:50.954Z,94685.44
2019-02-22T15:29:20.499Z,94687.89
2019-02-22T15:31:50.011Z,94681.21
2019-02-22T15:34:19.514Z,94692.59
2019-02-22T15:36:49.001Z,94696.39
2019-02-22T15:39:18.470Z,94698.99
2019-02-22T15:41:47.966Z,94697.06
2019-02-22T15:44:17.593Z,94697.19
2019-02-22T15:46:47.092Z,94696.25
2019-02-22T15:49:16.580Z,94698.20
2019-02-22T15:51:46.079Z,94701.77
2019-02-22T15:54:15.569Z,94700.97
2019-02-22T15:56:45.081Z,94698.53
2019-02-22T15:59:14.598Z,94703.74
2019-02-22T16:01:54.514Z,94699.20
2019-02-22T16:04:40.373Z,94706.08
2019-02-22T16:07:09.913Z,94702.83
2019-02-22T16:09:39.390Z,94703.14
2019-02-22T16:12:08.977Z,94707.05
2019-02-22T16:14:38.457Z,94708.34
2019-02-22T16:17:07.979Z,94704.77
2019-02-22T16:19:37.481Z,94710.94
2019-02-22T16:22:06.998Z,94719.61
2019-02-22T16:24:36.477Z,94718.44
2019-02-22T16:27:05.992Z,94728.50
2019-02-22T16:29:35.479Z,94725.20
2019-02-22T16:32:09.480Z,94721.13
2019-02-22T16:34:43.417Z,94721.30
2019-02-22T16:37:10.233Z,94729.63
2019-02-22T16:39:39.721Z,94725.25
2019-02-22T16:42:09.222Z,94726.87
2019-02-22T16:44:38.821Z,94729.20
2019-02-22T16:47:08.319Z,94736.52
2019-02-22T16:49:37.871Z,94736.34
2019-02-22T16:52:07.357Z,94738.95
2019-02-22T16:54:36.859Z,94740.30
2019-02-22T16:57:06.382Z,94737.38
2019-02-22T16:59:35.915Z,94736.56
2019-02-22T17:02:05.416Z,94735.79
2019-02-22T17:04:34.896Z,94740.34
2019-02-22T17:07:04.464Z,94740.50
2019-02-22T17:09:33.946Z,94747.16
2019-02-22T17:12:06.380Z,94745.20
2019-02-22T17:14:34.774Z,94751.09
2019-02-22T17:17:04.329Z,94745.38
2019-02-22T17:19:33.823Z,94753.34
2019-02-22T17:22:03.317Z,94745.53
2019-02-22T17:24:32.825Z,94745.89
2019-02-22T17:27:02.331Z,94746.67
2019-02-22T17:29:31.805Z,94756.58
2019-02-22T17:32:01.310Z,94748.14
2019-02-22T17:34:30.786Z,94752.36
2019-02-22T17:37:00.279Z,94749.75
2019-02-22T17:39:29.801Z,94755.41
2019-02-22T17:41:59.315Z,94755.44
2019-02-22T17:44:28.811Z,94754.31
2019-02-22T17:46:58.293Z,94751.91
2019-02-22T17:49:27.807Z,94755.32
2019-02-22T17:51:57.315Z,94754.05
2019-02-22T17:54:26.922Z,94746.71
2019-02-22T17:56:56.395Z,94748.98
2019-02-22T17:59:25.930Z,94743.30
2019-02-22T18:01:55.428Z,94750.41
2019-02-22T18:04:24.945Z,94749.75
2019-02-22T18:06:54.422Z,94745.57
2019-02-22T18:09:23.958Z,94742.20
2019-02-22T18:11:53.482Z,94746.09
2019-02-22T18:14:22.964Z,94736.84
2019-02-22T18:16:52.442Z,94734.23
2019-02-22T18:19:21.925Z,94735.57
2019-02-22T18:21:51.452Z,94729.37
2019-02-22T18:24:20.957Z,94731.64
2019-02-22T18:26:50.542Z,94725.47
2019-02-22T18:29:20.097Z,94728.06
2019-02-22T18:31:49.585Z,94730.30
2019-02-22T18:34:19.094Z,94725.14
2019-02-22T18:36:48.568Z,94719.95
2019-02-22T18:39:18.075Z,94716.73
2019-02-22T18:41:47.565Z,94714.78
2019-02-22T18:44:17.283Z,94714.14
2019-02-22T18:46:46.770Z,94716.41
2019-02-22T18:49:16.266Z,94710.24
2019-02-22T18:51:45.804Z,94703.06
2019-02-22T18:54:15.394Z,94701.83
2019-02-22T18:56:44.983Z,94704.27
2019-02-22T18:59:14.625Z,94706.02
2019-02-22T19:01:44.162Z,94706.02
2019-02-22T19:04:13.669Z,94704.23
2019-02-22T19:06:43.256Z,94708.75
2019-02-22T19:09:12.758Z,94706.95
2019-02-22T19:11:42.345Z,94712.77
2019-02-22T19:14:11.889Z,94708.87
2019-02-22T19:16:41.385Z,94700.91
2019-02-22T19:19:10.918Z,94707.41
2019-02-22T19:21:42.211Z,94705.94
2019-02-22T19:24:11.760Z,94707.08
2019-02-22T19:26:41.292Z,94710.33
2019-02-22T19:29:10.815Z,94707.28
2019-02-22T19:31:40.319Z,94700.62
2019-02-22T19:34:09.825Z,94704.06
2019-02-22T19:36:39.413Z,94704.55
2019-02-22T19:39:08.846Z,94701.44
2019-02-22T19:41:38.323Z,94696.59
2019-02-22T19:44:07.770Z,94697.61
2019-02-22T19:46:37.269Z,94691.44
2019-02-22T19:49:06.808Z,94691.15
2019-02-22T19:51:36.344Z,94694.10
2019-02-22T19:54:05.894Z,94695.70
2019-02-22T19:56:35.398Z,94696.18
2019-02-22T19:59:04.930Z,94696.70
2019-02-22T20:01:34.514Z,94690.98
2019-02-22T20:04:04.389Z,94689.26
2019-02-22T20:06:33.907Z,94686.34
2019-02-22T20:09:04.822Z,94684.03
2019-02-22T20:11:34.319Z,94682.58
2019-02-22T20:14:03.927Z,94680.44
2019-02-22T20:16:33.459Z,94673.65
2019-02-22T20:19:02.962Z,94672.48
2019-02-22T20:21:32.493Z,94670.37
2019-02-22T20:24:01.959Z,94667.45
2019-02-22T20:26:31.481Z,94666.19
2019-02-22T20:29:00.980Z,94664.88
2019-02-22T20:31:30.671Z,94671.54
2019-02-22T20:34:00.189Z,94668.13
2019-02-22T20:36:29.710Z,94666.99
2019-02-22T20:38:59.183Z,94665.21
2019-02-22T20:41:28.669Z,94670.08
2019-02-22T20:43:58.153Z,94665.21
2019-02-22T20:46:28.205Z,94666.70
2019-02-22T20:49:00.733Z,94662.34
2019-02-22T20:51:28.965Z,94659.42
2019-02-22T20:53:58.498Z,94658.29
2019-02-22T20:56:28.005Z,94660.27
2019-02-22T20:58:57.504Z,94657.02
2019-02-22T21:01:26.989Z,94662.38
2019-02-22T21:03:56.485Z,94664.62
2019-02-22T21:06:25.993Z,94671.92
2019-02-22T21:08:55.526Z,94669.16
2019-02-22T21:11:25.087Z,94672.86
2019-02-22T21:13:54.589Z,94664.91
2019-02-22T21:16:24.079Z,94657.31
2019-02-22T21:18:53.589Z,94652.61
2019-02-22T21:21:23.075Z,94656.83
2019-02-22T21:23:52.599Z,94655.86
2019-02-22T21:26:22.100Z,94652.91
2019-02-22T21:28:51.563Z,94653.20
2019-02-22T21:31:21.142Z,94657.58
2019-02-22T21:33:50.699Z,94665.21
2019-02-22T21:36:20.209Z,94653.81
2019-02-22T21:38:49.730Z,94656.77
2019-02-22T21:41:19.262Z,94658.23
2019-02-22T21:43:48.749Z,94664.88
2019-02-22T21:46:18.229Z,94655.80
2019-02-22T21:48:47.763Z,94662.09
2019-02-22T21:51:17.285Z,94661.61
2019-02-22T21:53:47.109Z,94662.58
2019-02-22T21:56:16.713Z,94659.33
2019-02-22T21:58:48.717Z,94664.49
2019-02-22T22:01:17.489Z,94669.55
2019-02-22T22:03:46.973Z,94659.49
2019-02-22T22:06:16.461Z,94658.69
2019-02-22T22:08:45.944Z,94660.47
2019-02-22T22:11:15.429Z,94660.95
2019-02-22T22:13:44.894Z,94664.04
2019-02-22T22:16:14.373Z,94660.59
2019-02-22T22:18:43.860Z,94665.79
2019-02-22T22:21:13.320Z,94666.77
2019-02-22T22:23:42.815Z,94676.83
2019-02-22T22:26:12.284Z,94669.88
2019-02-22T22:28:41.732Z,94677.38
2019-02-22T22:31:11.201Z,94688.58
2019-02-22T22:33:40.687Z,94692.53
2019-02-22T22:36:10.201Z,94692.58
2019-02-22T22:38:39.674Z,94696.80
2019-02-22T22:41:09.202Z,94711.36
2019-02-22T22:43:38.675Z,94731.67
2019-02-22T22:46:08.177Z,94730.19
2019-02-22T22:48:37.677Z,94741.72
2019-02-22T22:51:07.185Z,94755.17
2019-02-22T22:53:36.677Z,94767.36
2019-02-22T22:56:06.181Z,94758.81
2019-02-22T22:58:35.648Z,94805.75
2019-02-22T23:01:14.913Z,94831.31
2019-02-22T23:03:44.374Z,94826.69
2019-02-22T23:06:14.967Z,94846.34
2019-02-22T23:08:44.473Z,94892.69
2019-02-22T23:11:13.966Z,94892.14
2019-02-22T23:13:43.440Z,94894.84
2019-02-22T23:16:12.909Z,94922.05
2019-02-22T23:18:42.403Z,94943.25
2019-02-22T23:21:11.917Z,94941.41
2019-02-22T23:23:41.408Z,94962.34
2019-02-22T23:26:10.865Z,94961.05
2019-02-22T23:28:40.369Z,94963.55
2019-02-22T23:31:09.837Z,94955.68
2019-02-22T23:33:39.327Z,94964.76
2019-02-22T23:36:08.797Z,94969.66
2019-02-22T23:38:38.286Z,94975.02
2019-02-22T23:41:07.792Z,94985.54
2019-02-22T23:43:37.293Z,95007.45
2019-02-22T23:46:06.801Z,95007.56
2019-02-22T23:48:36.342Z,95033.54
2019-02-22T23:51:05.837Z,95036.53
2019-02-22T23:53:35.306Z,95056.14
2019-02-22T23:56:04.791Z,95078.45
2019-02-22T23:58:34.265Z,95079.22
